Time;durP1;ratioP1;P1;durP2;ratioP2;P2;SDS_P1;SDS_P2;PMS_P1;PMS_P2;Temp;Humidity;BMP_temperature;BMP_pressure;BME280_temperature;BME280_humidity;BME280_pressure;Samples;Min_cycle;Max_cycle;Signal;HPM_P1;HPM_P2
2022/01/07 00:00:12;;;;;;;1.63;1.40;;;2.70;98.20;;;;;;5080399;28;20473;-81
2022/01/07 00:02:39;;;;;;;1.70;1.60;;;2.80;98.20;;;;;;5091115;28;20471;-80
2022/01/07 00:05:07;;;;;;;1.70;1.47;;;2.80;98.20;;;;;;5072436;28;20485;-80
2022/01/07 00:07:34;;;;;;;2.30;2.10;;;2.90;98.20;;;;;;5091032;28;20471;-81
2022/01/07 00:10:01;;;;;;;1.70;1.50;;;2.90;98.20;;;;;;5089344;22;20496;-71
2022/01/07 00:12:29;;;;;;;1.63;1.50;;;2.90;98.20;;;;;;5026946;28;20470;-73
2022/01/07 00:14:56;;;;;;;1.70;1.50;;;2.90;98.20;;;;;;5029313;28;20470;-71
2022/01/07 00:17:23;;;;;;;1.70;1.43;;;2.90;98.20;;;;;;5028013;28;20483;-72
2022/01/07 00:19:49;;;;;;;1.70;1.60;;;3.00;98.20;;;;;;5032123;28;20472;-71
2022/01/07 00:22:16;;;;;;;1.63;1.40;;;3.00;98.20;;;;;;5024322;28;20572;-72
2022/01/07 00:24:43;;;;;;;1.70;1.50;;;3.00;98.20;;;;;;5028308;28;20471;-72
2022/01/07 00:27:10;;;;;;;1.70;1.50;;;3.00;98.20;;;;;;5026964;28;20489;-72
2022/01/07 00:29:38;;;;;;;1.77;1.67;;;3.00;98.20;;;;;;5033061;28;20868;-72
2022/01/07 00:32:06;;;;;;;1.80;1.70;;;3.00;98.20;;;;;;5022117;28;20491;-72
2022/01/07 00:34:33;;;;;;;1.70;1.50;;;2.90;98.20;;;;;;5027104;28;20458;-73
2022/01/07 00:37:00;;;;;;;1.70;1.57;;;2.90;98.20;;;;;;5027414;28;20947;-71
2022/01/07 00:39:26;;;;;;;1.70;1.50;;;2.90;98.20;;;;;;5034128;28;20486;-70
2022/01/07 00:41:53;;;;;;;1.63;1.40;;;2.90;98.20;;;;;;5013721;28;20929;-71
2022/01/07 00:44:20;;;;;;;1.63;1.40;;;2.90;98.20;;;;;;5031632;28;20870;-71
2022/01/07 00:46:48;;;;;;;1.60;1.50;;;2.90;98.20;;;;;;5025628;28;20489;-71
2022/01/07 00:49:21;;;;;;;1.70;1.50;;;2.90;98.20;;;;;;5034077;28;20451;-73
2022/01/07 00:51:48;;;;;;;1.70;1.50;;;3.00;98.20;;;;;;5023810;28;20497;-73
2022/01/07 00:54:14;;;;;;;1.70;1.50;;;3.00;98.20;;;;;;5031770;28;20603;-72
2022/01/07 00:56:41;;;;;;;1.70;1.40;;;3.00;98.20;;;;;;5024245;28;20686;-71
2022/01/07 00:59:08;;;;;;;1.70;1.50;;;3.00;98.20;;;;;;5030854;28;20793;-71
2022/01/07 01:01:35;;;;;;;1.60;1.40;;;3.00;98.20;;;;;;5023637;28;20923;-71
2022/01/07 01:04:04;;;;;;;1.70;1.50;;;3.10;98.20;;;;;;5029563;28;20479;-71
2022/01/07 01:06:31;;;;;;;1.70;1.40;;;3.10;98.20;;;;;;5023266;28;20482;-71
2022/01/07 01:08:57;;;;;;;1.70;1.60;;;3.10;98.20;;;;;;5032612;28;20456;-71
2022/01/07 01:11:24;;;;;;;1.60;1.30;;;3.10;98.20;;;;;;5019956;28;21152;-71
2022/01/07 01:13:51;;;;;;;1.63;1.40;;;3.10;98.20;;;;;;5029002;28;20722;-70
2022/01/07 01:16:18;;;;;;;1.60;1.40;;;3.10;98.20;;;;;;5019932;28;20474;-71
2022/01/07 01:18:44;;;;;;;1.60;1.37;;;3.10;98.20;;;;;;5034493;28;20486;-71
2022/01/07 01:21:12;;;;;;;1.60;1.40;;;3.10;98.20;;;;;;5018730;28;21717;-73
2022/01/07 01:23:41;;;;;;;1.70;1.53;;;3.10;98.20;;;;;;5034113;28;20455;-72
2022/01/07 01:26:08;;;;;;;1.70;1.50;;;3.10;98.20;;;;;;5017662;28;20528;-72
2022/01/07 01:28:35;;;;;;;1.70;1.50;;;3.20;98.20;;;;;;5040453;28;20455;-72
2022/01/07 01:31:02;;;;;;;1.70;1.60;;;3.20;98.20;;;;;;5016787;28;20490;-73
2022/01/07 01:33:28;;;;;;;1.70;1.50;;;3.20;98.20;;;;;;5038748;28;20467;-72
2022/01/07 01:35:55;;;;;;;1.60;1.33;;;3.20;98.20;;;;;;5018638;28;20466;-72
2022/01/07 01:38:23;;;;;;;1.70;1.50;;;3.30;98.20;;;;;;5039635;28;20490;-71
2022/01/07 01:40:50;;;;;;;1.70;1.40;;;3.30;98.20;;;;;;5019178;28;20484;-73
2022/01/07 01:43:17;;;;;;;1.70;1.40;;;3.30;98.20;;;;;;5039628;28;20475;-72
2022/01/07 01:45:43;;;;;;;1.70;1.50;;;3.30;98.20;;;;;;5027676;28;20459;-71
2022/01/07 01:48:10;;;;;;;1.70;1.50;;;3.40;98.20;;;;;;5026975;28;20474;-72
2022/01/07 01:50:37;;;;;;;1.67;1.40;;;3.40;98.20;;;;;;5028101;28;20483;-71
2022/01/07 01:53:04;;;;;;;1.60;1.40;;;3.40;98.20;;;;;;5025169;28;20483;-72
2022/01/07 01:55:32;;;;;;;1.63;1.40;;;3.40;98.20;;;;;;5027166;28;20471;-72
2022/01/07 01:57:59;;;;;;;1.60;1.40;;;3.40;98.20;;;;;;5023456;28;20475;-72
2022/01/07 02:00:27;;;;;;;1.63;1.40;;;3.40;98.20;;;;;;5027847;28;20483;-72
2022/01/07 02:02:54;;;;;;;1.60;1.40;;;3.40;98.20;;;;;;5031210;28;20491;-72
2022/01/07 02:05:22;;;;;;;1.70;1.40;;;3.40;98.20;;;;;;5026457;28;20459;-72
2022/01/07 02:07:49;;;;;;;1.67;1.50;;;3.40;98.20;;;;;;5030033;28;20475;-72
2022/01/07 02:10:17;;;;;;;1.70;1.40;;;3.40;98.20;;;;;;5024396;28;20485;-72
2022/01/07 02:12:45;;;;;;;1.70;1.40;;;3.40;98.20;;;;;;5019917;28;20483;-74
2022/01/07 02:15:14;;;;;;;1.70;1.43;;;3.40;98.20;;;;;;5026058;28;20963;-72
2022/01/07 02:17:42;;;;;;;1.70;1.50;;;3.40;98.20;;;;;;5024695;28;20493;-72
2022/01/07 02:20:12;;;;;;;1.67;1.50;;;3.50;98.20;;;;;;5027072;28;20459;-72
2022/01/07 02:22:39;;;;;;;1.60;1.50;;;3.40;98.20;;;;;;5021977;28;20477;-72
2022/01/07 02:25:07;;;;;;;1.67;1.40;;;3.40;98.20;;;;;;5025360;28;20470;-72
2022/01/07 02:27:37;;;;;;;1.60;1.40;;;3.50;98.20;;;;;;5023927;28;21026;-72
2022/01/07 02:30:06;;;;;;;1.67;1.40;;;3.40;98.20;;;;;;5027381;28;20459;-72
2022/01/07 02:32:33;;;;;;;1.60;1.40;;;3.40;98.20;;;;;;5025476;28;21014;-72
2022/01/07 02:35:00;;;;;;;1.70;1.53;;;3.40;98.20;;;;;;5014231;28;20988;-71
2022/01/07 02:37:28;;;;;;;1.70;1.50;;;3.40;98.20;;;;;;5022841;28;20484;-71
2022/01/07 02:39:55;;;;;;;1.67;1.40;;;3.40;98.20;;;;;;5028098;28;20842;-70
2022/01/07 02:42:22;;;;;;;1.70;1.43;;;3.30;98.20;;;;;;5027569;28;20739;-70
2022/01/07 02:44:49;;;;;;;1.60;1.50;;;3.30;98.20;;;;;;5028159;28;20943;-70
2022/01/07 02:47:16;;;;;;;3.23;3.03;;;3.30;98.20;;;;;;5023015;28;20490;-71
2022/01/07 02:49:43;;;;;;;1.70;1.50;;;3.20;98.20;;;;;;5030014;28;20482;-70
2022/01/07 02:52:09;;;;;;;1.70;1.50;;;3.20;98.20;;;;;;5029189;28;20481;-70
2022/01/07 02:54:37;;;;;;;1.67;1.40;;;3.20;98.20;;;;;;5030688;28;20477;-70
2022/01/07 02:57:05;;;;;;;1.63;1.50;;;3.20;98.20;;;;;;5028458;28;20481;-70
2022/01/07 02:59:32;;;;;;;1.70;1.50;;;3.20;98.20;;;;;;5035265;28;20494;-71
2022/01/07 03:01:58;;;;;;;1.67;1.40;;;3.20;98.20;;;;;;5026718;28;20490;-71
2022/01/07 03:04:27;;;;;;;1.63;1.40;;;3.20;98.20;;;;;;5033722;28;20542;-72
2022/01/07 03:06:55;;;;;;;1.63;1.40;;;3.10;98.20;;;;;;5023739;28;20605;-72
2022/01/07 03:09:21;;;;;;;1.70;1.57;;;3.10;98.20;;;;;;5031131;28;20454;-70
2022/01/07 03:11:52;;;;;;;1.70;1.40;;;3.00;98.20;;;;;;5025947;28;20492;-71
2022/01/07 03:14:19;;;;;;;1.60;1.30;;;3.00;98.20;;;;;;5035534;28;21023;-71
2022/01/07 03:16:46;;;;;;;1.67;1.40;;;2.90;98.20;;;;;;5026656;28;20493;-72
2022/01/07 03:19:12;;;;;;;1.70;1.50;;;2.90;98.20;;;;;;5035397;28;20494;-71
2022/01/07 03:21:39;;;;;;;1.60;1.50;;;2.90;98.20;;;;;;5022441;28;20479;-71
2022/01/07 03:24:06;;;;;;;1.60;1.40;;;2.80;98.20;;;;;;5034321;28;20467;-71
2022/01/07 03:26:33;;;;;;;1.70;1.50;;;2.90;98.20;;;;;;5024894;28;20486;-71
2022/01/07 03:29:01;;;;;;;1.67;1.50;;;2.90;98.20;;;;;;5034266;28;20459;-71
2022/01/07 03:31:28;;;;;;;1.60;1.40;;;2.80;98.20;;;;;;5021450;28;20488;-71
2022/01/07 03:33:55;;;;;;;1.70;1.40;;;2.90;98.20;;;;;;5031658;28;20836;-72
2022/01/07 03:36:21;;;;;;;1.67;1.40;;;2.90;98.20;;;;;;5022520;28;21036;-71
2022/01/07 03:38:48;;;;;;;1.70;1.53;;;2.90;98.20;;;;;;5040855;28;20497;-71
2022/01/07 03:41:15;;;;;;;1.70;1.60;;;3.00;98.20;;;;;;5020732;28;20485;-71
2022/01/07 03:43:42;;;;;;;1.70;1.50;;;3.00;98.20;;;;;;5038894;28;20478;-71
2022/01/07 03:46:10;;;;;;;1.70;1.50;;;3.00;98.20;;;;;;5018581;28;20874;-71
2022/01/07 03:48:36;;;;;;;1.60;1.50;;;3.10;98.20;;;;;;5040965;28;20463;-71
2022/01/07 03:51:03;;;;;;;1.63;1.40;;;3.10;98.20;;;;;;5019797;28;20490;-70
2022/01/07 03:53:30;;;;;;;1.70;1.50;;;3.00;98.20;;;;;;5033655;28;20470;-70
2022/01/07 03:55:57;;;;;;;1.67;1.50;;;3.10;98.20;;;;;;5014184;28;20459;-70
2022/01/07 03:58:24;;;;;;;1.70;1.50;;;3.10;98.20;;;;;;5042320;28;20467;-71
2022/01/07 04:00:50;;;;;;;1.63;1.47;;;3.10;98.20;;;;;;5015616;28;20503;-70
2022/01/07 04:03:19;;;;;;;1.63;1.40;;;3.10;98.20;;;;;;5041006;28;20452;-71
2022/01/07 04:05:47;;;;;;;1.60;1.40;;;3.20;98.20;;;;;;5024781;28;20949;-70
2022/01/07 04:08:14;;;;;;;1.70;1.40;;;3.20;98.20;;;;;;4997132;28;20475;-70
2022/01/07 04:10:41;;;;;;;1.70;1.60;;;3.20;98.20;;;;;;5010048;28;20864;-71
2022/01/07 04:13:08;;;;;;;1.70;1.60;;;3.20;98.20;;;;;;5000094;28;20519;-70
2022/01/07 04:15:35;;;;;;;1.70;1.50;;;3.20;98.20;;;;;;5001367;28;20655;-70
2022/01/07 04:18:02;;;;;;;1.70;1.50;;;3.30;98.20;;;;;;5002816;28;20476;-68
2022/01/07 04:20:32;;;;;;;1.70;1.50;;;3.20;98.20;;;;;;5029153;28;20514;-70
2022/01/07 04:22:59;;;;;;;1.63;1.40;;;3.20;98.20;;;;;;5002354;28;20884;-70
2022/01/07 04:25:26;;;;;;;1.67;1.40;;;3.20;98.20;;;;;;4999724;28;20465;-70
2022/01/07 04:27:57;;;;;;;1.67;1.40;;;3.20;98.20;;;;;;5009672;28;20490;-71
2022/01/07 04:30:24;;;;;;;1.67;1.40;;;3.20;98.20;;;;;;5028077;28;21044;-70
2022/01/07 04:32:53;;;;;;;1.63;1.40;;;3.20;98.20;;;;;;5023719;28;20486;-70
2022/01/07 04:35:20;;;;;;;1.67;1.43;;;3.20;98.20;;;;;;5024556;28;20580;-69
2022/01/07 04:37:48;;;;;;;1.70;1.40;;;3.20;98.20;;;;;;5028455;28;21018;-70
2022/01/07 04:40:16;;;;;;;1.60;1.40;;;3.30;98.20;;;;;;5028052;28;20921;-70
2022/01/07 04:42:43;;;;;;;1.63;1.40;;;3.30;98.20;;;;;;5027906;28;20663;-70
2022/01/07 04:45:11;;;;;;;1.70;1.47;;;3.40;98.20;;;;;;5027223;28;20654;-70
2022/01/07 04:47:38;;;;;;;1.70;1.50;;;3.40;98.20;;;;;;5028019;28;20481;-70
2022/01/07 04:50:08;;;;;;;1.67;1.40;;;3.40;98.20;;;;;;5029252;28;20927;-71
2022/01/07 04:52:35;;;;;;;1.70;1.50;;;3.40;98.20;;;;;;5026004;28;20478;-70
2022/01/07 04:55:03;;;;;;;1.60;1.40;;;3.40;98.20;;;;;;5025375;28;20471;-71
2022/01/07 04:57:30;;;;;;;1.67;1.40;;;3.40;98.20;;;;;;5020250;28;20758;-71
2022/01/07 04:59:57;;;;;;;1.60;1.40;;;3.40;98.20;;;;;;5027444;28;20491;-71
2022/01/07 05:02:24;;;;;;;1.67;1.47;;;3.40;98.20;;;;;;5028094;28;20487;-70
2022/01/07 05:04:50;;;;;;;1.70;1.50;;;3.30;98.20;;;;;;5029641;28;20499;-71
2022/01/07 05:07:17;;;;;;;1.70;1.47;;;3.30;98.20;;;;;;5021185;28;20496;-70
2022/01/07 05:09:45;;;;;;;1.70;1.40;;;3.30;98.20;;;;;;5026431;28;20467;-69
2022/01/07 05:12:13;;;;;;;1.70;1.53;;;3.30;98.20;;;;;;5024772;28;20482;-70
2022/01/07 05:14:40;;;;;;;1.70;1.40;;;3.30;98.20;;;;;;5028884;28;20797;-71
2022/01/07 05:17:07;;;;;;;1.70;1.50;;;3.30;98.20;;;;;;5025366;28;20510;-69
2022/01/07 05:19:34;;;;;;;1.60;1.50;;;3.30;98.20;;;;;;5032769;28;20859;-69
2022/01/07 05:22:00;;;;;;;1.60;1.47;;;3.30;98.20;;;;;;5019391;28;20960;-69
2022/01/07 05:24:27;;;;;;;1.70;1.40;;;3.30;98.20;;;;;;5030946;28;20979;-70
2022/01/07 05:26:54;;;;;;;1.63;1.47;;;3.30;98.20;;;;;;5024300;28;20505;-71
2022/01/07 05:29:22;;;;;;;1.70;1.60;;;3.30;98.20;;;;;;5033169;28;20883;-70
2022/01/07 05:31:49;;;;;;;1.63;1.50;;;3.30;98.20;;;;;;5023026;28;20485;-70
2022/01/07 05:34:15;;;;;;;1.70;1.50;;;3.30;98.20;;;;;;5032191;28;20466;-70
2022/01/07 05:36:42;;;;;;;1.60;1.40;;;3.30;98.20;;;;;;5022439;28;20521;-70
2022/01/07 05:39:09;;;;;;;1.70;1.40;;;3.30;98.20;;;;;;5030935;28;20578;-70
2022/01/07 05:41:36;;;;;;;1.70;1.40;;;3.30;98.20;;;;;;5016833;28;20487;-71
2022/01/07 05:44:03;;;;;;;1.70;1.40;;;3.30;98.20;;;;;;5032200;28;20462;-70
2022/01/07 05:46:31;;;;;;;1.70;1.50;;;3.30;98.20;;;;;;5016404;28;20486;-70
2022/01/07 05:48:57;;;;;;;1.70;1.50;;;3.30;98.20;;;;;;5035344;28;20466;-70
2022/01/07 05:51:24;;;;;;;1.70;1.50;;;3.30;98.20;;;;;;5019412;28;21297;-70
2022/01/07 05:53:51;;;;;;;1.70;1.50;;;3.30;98.20;;;;;;5033665;28;20527;-69
2022/01/07 05:56:18;;;;;;;1.70;1.40;;;3.30;98.20;;;;;;5017477;28;20482;-69
2022/01/07 05:58:44;;;;;;;1.70;1.53;;;3.20;98.20;;;;;;5027501;28;20927;-70
2022/01/07 06:01:12;;;;;;;1.70;1.60;;;3.20;98.20;;;;;;5017029;28;20501;-70
2022/01/07 06:03:41;;;;;;;1.67;1.43;;;3.20;98.20;;;;;;5036965;28;20462;-71
2022/01/07 06:06:08;;;;;;;1.60;1.40;;;3.20;98.20;;;;;;5016251;28;20832;-70
2022/01/07 06:08:35;;;;;;;1.60;1.40;;;3.20;98.20;;;;;;5037332;28;20466;-70
2022/01/07 06:11:02;;;;;;;1.67;1.40;;;3.20;98.20;;;;;;5016705;28;20489;-70
2022/01/07 06:13:29;;;;;;;1.63;1.40;;;3.10;98.20;;;;;;5033496;28;20463;-71
2022/01/07 06:15:55;;;;;;;1.70;1.60;;;3.10;98.20;;;;;;5014989;28;20836;-70
2022/01/07 06:20:59;;;;;;;1.60;1.30;;;3.10;98.20;;;;;;5639139;23;20490;-70
2022/01/07 06:23:26;;;;;;;1.70;1.60;;;3.10;98.20;;;;;;5043649;28;20852;-71
2022/01/07 06:25:52;;;;;;;1.63;1.50;;;3.00;98.20;;;;;;5011163;28;20459;-70
2022/01/07 06:28:20;;;;;;;1.70;1.53;;;3.00;98.20;;;;;;5041295;28;20574;-72
2022/01/07 06:30:47;;;;;;;1.60;1.40;;;3.00;98.20;;;;;;5015282;28;20849;-71
2022/01/07 06:33:13;;;;;;;1.70;1.50;;;3.10;98.20;;;;;;5023491;28;20472;-70
2022/01/07 06:35:40;;;;;;;1.70;1.50;;;3.10;98.20;;;;;;5005631;28;20464;-71
2022/01/07 06:38:08;;;;;;;1.70;1.40;;;3.10;98.20;;;;;;5014144;28;20863;-70
2022/01/07 06:40:35;;;;;;;1.70;1.57;;;3.10;98.20;;;;;;5008970;28;20497;-71
2022/01/07 06:43:02;;;;;;;1.63;1.40;;;3.10;98.20;;;;;;5011469;28;20487;-70
2022/01/07 06:45:29;;;;;;;1.67;1.40;;;3.10;98.20;;;;;;5013417;28;20885;-70
2022/01/07 06:47:56;;;;;;;1.63;1.40;;;3.10;98.20;;;;;;5014209;28;20483;-70
2022/01/07 06:50:23;;;;;;;1.70;1.50;;;3.20;98.20;;;;;;5011535;28;20868;-69
2022/01/07 06:52:49;;;;;;;1.63;1.40;;;3.20;98.20;;;;;;5011672;28;20506;-69
2022/01/07 06:55:18;;;;;;;1.70;1.50;;;3.20;98.20;;;;;;5014601;28;20466;-70
2022/01/07 06:57:44;;;;;;;1.63;1.40;;;3.20;98.20;;;;;;5014121;28;21048;-69
2022/01/07 07:00:12;;;;;;;1.70;1.43;;;3.30;98.20;;;;;;5012606;28;20494;-70
2022/01/07 07:02:39;;;;;;;1.63;1.40;;;3.30;98.20;;;;;;5011357;28;20510;-70
2022/01/07 07:05:06;;;;;;;1.67;1.30;;;3.30;98.20;;;;;;5009831;28;20471;-71
2022/01/07 07:07:33;;;;;;;1.70;1.40;;;3.30;98.20;;;;;;5016191;28;20920;-69
2022/01/07 07:09:59;;;;;;;1.70;1.50;;;3.30;98.20;;;;;;5009409;28;20460;-71
2022/01/07 07:12:27;;;;;;;1.70;1.47;;;3.30;98.20;;;;;;5008645;28;20487;-70
2022/01/07 07:14:54;;;;;;;1.60;1.40;;;3.40;98.20;;;;;;5010827;28;20482;-69
2022/01/07 07:17:23;;;;;;;1.70;1.40;;;3.40;98.20;;;;;;4998115;28;20757;-69
2022/01/07 07:19:50;;;;;;;1.67;1.40;;;3.40;98.20;;;;;;5011206;28;20488;-71
2022/01/07 07:22:17;;;;;;;1.63;1.40;;;3.40;98.20;;;;;;5010138;28;20490;-69
2022/01/07 07:24:43;;;;;;;1.70;1.47;;;3.40;98.20;;;;;;5013392;28;20487;-70
2022/01/07 07:27:10;;;;;;;1.73;1.63;;;3.40;98.20;;;;;;5009533;28;20486;-70
2022/01/07 07:29:38;;;;;;;1.90;1.70;;;3.40;98.20;;;;;;5009899;28;20464;-69
2022/01/07 07:32:09;;;;;;;1.70;1.40;;;3.50;98.20;;;;;;5006000;28;20490;-70
2022/01/07 07:34:57;;;;;;;1.70;1.43;;;3.50;98.20;;;;;;5012749;28;20452;-70
2022/01/07 07:37:24;;;;;;;1.80;1.70;;;3.50;98.20;;;;;;5011769;28;20487;-70
2022/01/07 07:39:51;;;;;;;1.70;1.50;;;3.50;98.20;;;;;;5017242;28;20492;-70
2022/01/07 07:42:18;;;;;;;1.70;1.40;;;3.60;98.20;;;;;;5011524;28;21177;-69
2022/01/07 07:44:46;;;;;;;1.63;1.40;;;3.60;98.20;;;;;;5019604;28;20463;-69
2022/01/07 07:47:13;;;;;;;1.63;1.37;;;3.60;98.20;;;;;;5015254;28;20478;-69
2022/01/07 07:49:39;;;;;;;1.70;1.40;;;3.60;98.20;;;;;;5017218;28;20468;-69
2022/01/07 07:52:07;;;;;;;1.70;1.40;;;3.60;98.20;;;;;;5009986;28;20497;-70
2022/01/07 07:54:33;;;;;;;1.70;1.47;;;3.70;98.20;;;;;;5018765;28;20543;-69
2022/01/07 07:57:00;;;;;;;3.50;3.30;;;3.70;98.20;;;;;;5007832;28;20490;-69
2022/01/07 07:59:27;;;;;;;1.63;1.30;;;3.70;98.20;;;;;;5019971;28;20547;-69
2022/01/07 08:01:55;;;;;;;1.60;1.40;;;3.70;98.20;;;;;;5005891;28;20499;-70
2022/01/07 08:04:22;;;;;;;1.60;1.50;;;3.80;98.20;;;;;;5020900;28;20461;-70
2022/01/07 08:06:49;;;;;;;1.70;1.40;;;3.80;98.20;;;;;;5006552;28;20505;-71
2022/01/07 08:09:16;;;;;;;1.67;1.43;;;3.80;98.20;;;;;;5024145;28;20474;-69
2022/01/07 08:11:51;;;;;;;1.60;1.30;;;3.80;98.20;;;;;;5006545;28;20557;-72
2022/01/07 08:17:10;;;;;;;1.70;1.40;;;3.90;98.20;;;;;;4951665;28;20927;-71
2022/01/07 08:19:37;;;;;;;1.60;1.30;;;3.90;98.20;;;;;;5016296;28;20952;-70
2022/01/07 08:22:04;;;;;;;1.67;1.40;;;3.90;98.20;;;;;;5007994;28;20570;-72
2022/01/07 08:24:32;;;;;;;1.63;1.40;;;3.90;98.20;;;;;;5015534;28;20657;-73
2022/01/07 08:26:59;;;;;;;1.70;1.40;;;4.00;98.20;;;;;;5007652;28;20483;-72
2022/01/07 08:29:30;;;;;;;1.67;1.40;;;4.10;98.20;;;;;;5022562;28;21046;-72
2022/01/07 08:34:57;;;;;;;1.67;1.40;;;4.20;98.20;;;;;;5015537;28;20733;-72
2022/01/07 08:37:26;;;;;;;1.60;1.40;;;4.20;98.20;;;;;;5013054;28;21106;-72
2022/01/07 08:39:54;;;;;;;1.60;1.30;;;4.30;98.20;;;;;;5010765;28;20779;-73
2022/01/07 08:42:22;;;;;;;1.70;1.40;;;4.30;98.20;;;;;;5010026;28;20484;-70
2022/01/07 08:44:51;;;;;;;1.63;1.30;;;4.40;98.20;;;;;;5012928;28;20468;-70
2022/01/07 08:47:18;;;;;;;1.70;1.60;;;4.40;98.20;;;;;;5007403;28;20551;-71
2022/01/07 08:49:47;;;;;;;1.70;1.40;;;4.40;98.20;;;;;;5018567;28;20459;-72
2022/01/07 08:52:14;;;;;;;1.70;1.53;;;4.40;98.20;;;;;;5009699;28;20486;-71
2022/01/07 08:54:41;;;;;;;1.60;1.40;;;4.50;98.20;;;;;;5017245;28;20468;-72
2022/01/07 08:57:08;;;;;;;1.70;1.60;;;4.50;98.20;;;;;;5014019;28;20483;-72
2022/01/07 08:59:34;;;;;;;1.70;1.40;;;4.50;98.20;;;;;;5025004;28;20463;-72
2022/01/07 09:02:01;;;;;;;1.60;1.30;;;4.60;98.20;;;;;;5006858;28;20494;-72
2022/01/07 09:04:28;;;;;;;1.67;1.40;;;4.60;98.20;;;;;;5022761;28;20853;-72
2022/01/07 09:06:56;;;;;;;3.77;3.57;;;4.60;98.20;;;;;;5006496;28;20486;-73
2022/01/07 09:09:22;;;;;;;1.67;1.40;;;4.70;98.20;;;;;;5020678;28;20487;-71
2022/01/07 09:11:49;;;;;;;1.60;1.30;;;4.70;98.20;;;;;;5005177;28;20487;-73
2022/01/07 09:14:16;;;;;;;1.70;1.40;;;4.70;98.20;;;;;;5021604;28;21071;-71
2022/01/07 09:16:43;;;;;;;1.70;1.47;;;4.80;98.20;;;;;;5009870;28;20486;-72
2022/01/07 09:19:10;;;;;;;1.67;1.40;;;4.80;98.20;;;;;;5029334;28;20470;-72
2022/01/07 09:21:36;;;;;;;1.70;1.40;;;4.80;98.20;;;;;;5002911;28;21000;-72
2022/01/07 09:24:05;;;;;;;1.63;1.33;;;4.80;98.20;;;;;;5028832;28;20463;-72
2022/01/07 09:26:32;;;;;;;1.70;1.33;;;4.90;98.20;;;;;;5010373;28;20545;-72
2022/01/07 09:28:59;;;;;;;1.70;1.40;;;4.90;98.20;;;;;;5028103;28;20471;-73
2022/01/07 09:31:26;;;;;;;1.70;1.60;;;4.90;98.20;;;;;;4999787;28;20483;-73
2022/01/07 09:33:53;;;;;;;1.70;1.50;;;4.90;98.20;;;;;;5025073;28;20805;-73
2022/01/07 09:36:19;;;;;;;1.67;1.30;;;4.90;98.20;;;;;;5002124;28;20848;-73
2022/01/07 09:38:46;;;;;;;1.70;1.47;;;5.00;98.20;;;;;;5021612;28;20456;-73
2022/01/07 09:41:14;;;;;;;1.60;1.30;;;5.00;98.20;;;;;;4997971;28;20494;-73
2022/01/07 09:43:43;;;;;;;1.60;1.40;;;5.00;98.20;;;;;;5024796;28;20487;-73
2022/01/07 09:46:13;;;;;;;1.70;1.40;;;5.00;98.20;;;;;;5003876;28;20499;-73
2022/01/07 09:48:41;;;;;;;1.70;1.50;;;5.00;98.20;;;;;;5027809;28;20921;-73
2022/01/07 09:51:08;;;;;;;1.60;1.30;;;5.00;98.20;;;;;;4998508;28;20472;-73
2022/01/07 09:53:34;;;;;;;1.60;1.30;;;5.00;98.20;;;;;;5026459;28;20459;-73
2022/01/07 09:56:03;;;;;;;1.70;1.40;;;5.00;98.20;;;;;;4992490;28;20456;-73
2022/01/07 09:58:32;;;;;;;1.67;1.40;;;5.10;98.20;;;;;;5026477;28;20928;-73
2022/01/07 10:01:04;;;;;;;1.70;1.50;;;5.10;98.20;;;;;;4999141;28;20499;-73
2022/01/07 10:03:37;;;;;;;1.60;1.30;;;5.10;98.20;;;;;;5030804;28;20464;-70
2022/01/07 10:06:15;;;;;;;1.60;1.40;;;5.10;98.20;;;;;;4993068;28;20507;-70
2022/01/07 10:08:42;;;;;;;1.63;1.30;;;5.20;98.20;;;;;;5008289;28;20463;-70
2022/01/07 10:11:18;;;;;;;1.70;1.47;;;5.20;98.20;;;;;;5001314;28;20480;-70
2022/01/07 10:13:48;;;;;;;1.70;1.40;;;5.20;98.20;;;;;;5022807;28;20470;-71
2022/01/07 10:16:17;;;;;;;1.63;1.30;;;5.30;98.20;;;;;;4999499;28;20491;-71
2022/01/07 10:18:47;;;;;;;1.60;1.30;;;5.30;98.20;;;;;;5026469;28;20464;-73
2022/01/07 10:21:16;;;;;;;1.67;1.30;;;5.40;98.20;;;;;;4998490;28;20602;-75
2022/01/07 10:23:43;;;;;;;1.67;1.37;;;5.40;98.20;;;;;;5021500;28;20468;-76
2022/01/07 10:26:18;;;;;;;1.70;1.43;;;5.40;98.20;;;;;;5003689;28;20477;-74
2022/01/07 10:28:49;;;;;;;1.70;1.40;;;5.50;98.20;;;;;;5020368;28;20477;-73
2022/01/07 10:31:22;;;;;;;1.60;1.30;;;5.50;98.20;;;;;;5000281;28;20870;-77
2022/01/07 10:33:49;;;;;;;1.63;1.40;;;5.60;98.20;;;;;;5019016;28;20464;-73
2022/01/07 10:36:20;;;;;;;1.70;1.40;;;5.60;98.20;;;;;;5003847;28;20475;-74
2022/01/07 10:38:52;;;;;;;1.70;1.40;;;5.70;98.20;;;;;;5017952;28;20474;-75
2022/01/07 10:41:19;;;;;;;1.63;1.27;;;5.70;98.20;;;;;;5003024;28;20875;-73
2022/01/07 10:43:48;;;;;;;1.67;1.40;;;5.70;98.20;;;;;;5018905;28;20471;-74
2022/01/07 10:46:19;;;;;;;1.60;1.30;;;5.80;98.20;;;;;;4999798;28;20494;-74
2022/01/07 10:48:49;;;;;;;1.70;1.37;;;5.70;98.20;;;;;;5022307;28;20555;-77
2022/01/07 10:51:18;;;;;;;1.60;1.27;;;5.70;98.20;;;;;;5003334;28;20482;-73
2022/01/07 10:53:52;;;;;;;1.70;1.47;;;5.70;98.20;;;;;;5016762;28;20625;-71
2022/01/07 10:56:20;;;;;;;1.70;1.40;;;5.70;98.20;;;;;;4997903;28;21017;-71
2022/01/07 10:59:06;;;;;;;1.70;1.40;;;5.70;98.20;;;;;;5022900;28;20491;-71
2022/01/07 11:01:44;;;;;;;1.70;1.50;;;5.70;98.20;;;;;;5000363;28;20483;-70
2022/01/07 11:04:14;;;;;;;1.70;1.30;;;5.70;98.20;;;;;;5019774;28;20867;-71
2022/01/07 11:06:42;;;;;;;1.70;1.30;;;5.70;98.20;;;;;;5004029;28;20483;-70
2022/01/07 11:09:10;;;;;;;1.67;1.30;;;5.70;98.20;;;;;;5018051;28;20472;-70
2022/01/07 11:11:45;;;;;;;1.70;1.30;;;5.70;98.20;;;;;;5008574;28;20571;-71
2022/01/07 11:14:17;;;;;;;2.97;2.63;;;5.70;98.20;;;;;;5022697;28;20498;-71
2022/01/07 11:16:44;;;;;;;1.60;1.30;;;5.70;98.20;;;;;;5005307;28;20490;-71
2022/01/07 11:19:12;;;;;;;1.60;1.30;;;5.70;98.20;;;;;;5021094;28;20460;-71
2022/01/07 11:21:41;;;;;;;1.60;1.30;;;5.70;98.20;;;;;;5004617;28;20498;-71
2022/01/07 11:24:37;;;;;;;1.70;1.37;;;5.70;98.20;;;;;;5021336;28;20466;-71
2022/01/07 11:27:06;;;;;;;1.70;1.40;;;5.80;98.20;;;;;;5010626;28;20540;-73
2022/01/07 11:29:39;;;;;;;1.70;1.30;;;5.80;98.20;;;;;;5016493;28;20476;-75
2022/01/07 11:32:34;;;;;;;1.60;1.30;;;5.90;98.20;;;;;;5014358;28;20552;-74
2022/01/07 11:35:41;;;;;;;1.67;1.30;;;5.90;98.20;;;;;;4999621;28;20505;-74
2022/01/07 11:38:34;;;;;;;1.60;1.30;;;6.00;98.20;;;;;;4961462;28;20572;-74
2022/01/07 11:41:03;;;;;;;1.60;1.33;;;6.00;98.20;;;;;;4958007;28;20505;-75
2022/01/07 11:43:35;;;;;;;1.67;1.37;;;6.10;98.20;;;;;;5005665;28;20462;-73
2022/01/07 11:46:23;;;;;;;1.60;1.30;;;6.20;98.20;;;;;;5004355;28;20637;-73
2022/01/07 11:48:50;;;;;;;1.70;1.40;;;6.30;98.20;;;;;;5022595;28;20464;-73
2022/01/07 11:51:17;;;;;;;1.70;1.30;;;6.40;98.20;;;;;;5006983;28;20475;-72
2022/01/07 11:54:03;;;;;;;1.60;1.30;;;6.50;98.20;;;;;;5022860;28;20471;-77
2022/01/07 11:56:31;;;;;;;1.60;1.20;;;6.60;98.20;;;;;;5007814;28;20543;-74
2022/01/07 11:58:59;;;;;;;1.63;1.30;;;6.60;98.20;;;;;;5020635;28;20487;-74
2022/01/07 12:01:29;;;;;;;1.70;1.30;;;6.60;98.20;;;;;;5008179;28;20478;-72
2022/01/07 12:03:58;;;;;;;1.60;1.20;;;6.60;98.20;;;;;;5022773;28;20475;-73
2022/01/07 12:06:50;;;;;;;2.23;2.03;;;6.50;98.20;;;;;;5004820;28;20522;-75
2022/01/07 12:09:22;;;;;;;1.60;1.30;;;6.50;98.20;;;;;;5024865;28;20865;-74
2022/01/07 12:11:58;;;;;;;1.70;1.30;;;6.40;98.20;;;;;;5006142;28;20566;-75
2022/01/07 12:14:26;;;;;;;1.60;1.30;;;6.40;98.20;;;;;;5023051;28;20521;-74
2022/01/07 12:16:57;;;;;;;1.70;1.30;;;6.40;98.20;;;;;;5007729;28;20484;-73
2022/01/07 12:20:22;;;;;;;1.67;1.30;;;6.40;98.20;;;;;;5026200;28;20745;-73
2022/01/07 12:22:51;;;;;;;1.67;1.30;;;6.40;98.20;;;;;;5012299;28;20890;-73
2022/01/07 12:25:19;;;;;;;1.70;1.37;;;6.40;98.20;;;;;;5011226;28;20468;-73
2022/01/07 12:27:47;;;;;;;1.63;1.30;;;6.30;98.20;;;;;;5008594;28;21021;-73
2022/01/07 12:30:14;;;;;;;1.63;1.30;;;6.40;98.20;;;;;;5009745;28;20468;-76
2022/01/07 12:32:44;;;;;;;1.63;1.30;;;6.40;98.20;;;;;;5011509;28;20471;-72
2022/01/07 12:35:12;;;;;;;1.60;1.30;;;6.30;98.20;;;;;;5007259;28;20501;-74
2022/01/07 12:37:39;;;;;;;1.63;1.20;;;6.40;98.20;;;;;;5014946;28;20487;-73
2022/01/07 12:40:08;;;;;;;1.60;1.30;;;6.40;98.20;;;;;;5011191;28;20464;-73
2022/01/07 12:42:41;;;;;;;1.60;1.20;;;6.40;98.20;;;;;;5014251;28;20471;-73
2022/01/07 12:45:14;;;;;;;1.60;1.20;;;6.40;98.20;;;;;;5017690;28;20972;-73
2022/01/07 12:47:42;;;;;;;1.60;1.20;;;6.50;98.20;;;;;;5011969;28;20582;-73
2022/01/07 12:50:09;;;;;;;1.67;1.30;;;6.50;98.20;;;;;;5016487;28;20464;-74
2022/01/07 12:52:38;;;;;;;1.60;1.20;;;6.50;98.20;;;;;;5012548;28;20474;-73
2022/01/07 12:55:07;;;;;;;1.60;1.20;;;6.50;98.20;;;;;;5017207;28;20663;-73
2022/01/07 12:57:37;;;;;;;1.70;1.40;;;6.50;98.20;;;;;;5008473;28;20495;-74
2022/01/07 13:00:11;;;;;;;1.60;1.23;;;6.50;98.20;;;;;;5014963;28;20853;-74
2022/01/07 13:02:40;;;;;;;1.60;1.20;;;6.50;98.20;;;;;;5012434;28;20477;-73
2022/01/07 13:05:20;;;;;;;1.70;1.40;;;6.50;98.20;;;;;;5012688;28;20460;-73
2022/01/07 13:07:48;;;;;;;1.67;1.30;;;6.50;98.20;;;;;;4988525;28;20492;-72
2022/01/07 13:10:21;;;;;;;1.60;1.30;;;6.40;98.20;;;;;;5012373;28;20491;-72
2022/01/07 13:12:59;;;;;;;1.60;1.20;;;6.40;98.20;;;;;;5022220;28;20503;-75